Latest Coastal Weather Observations for Wyndham Airport

IDW60701

Issued at 9:23 am WST Wednesday 29 March 2017 (issued every 10 minutes, with the page automatically refreshed every 10 minutes)

About coastal observations | Map of coastal stations | Coastal observations for WA | Marine services | Other Formats
Station Details ID: 001006 Name: WYNDHAM AERO Lat: -15.51 Lon: 128.15 Height: 3.8 m
Data from the previous 72 hours. | See also: Recent months at Wyndham Airport
Date/Time
WST
Temp
°C
Wind Pressure Rain since
9am
mm
Weather Cloud Vis
km
Sea
Height
m
Swell
Dir  Spd
kts
Gust
kts
hPa Trend Height
m
Period
s
Dir
29/09:00am 32.1 SW 5 7 1009.2 - 0.0 - - - - - - -
29/08:30am 31.4 SW 1 5 1009.4 - 0.0 - - - - - - -
29/08:00am 30.8 CALM 0 0 1009.3 - 0.0 - - - - - - -
29/07:30am 30.0 CALM 0 0 1009.2 - 0.0 - - - - - - -
29/07:00am 29.3 CALM 0 0 1009.1 - 0.0 - - - - - - -
29/06:30am 28.8 CALM 0 0 1008.7 - 0.0 - - - - - - -
29/06:00am 28.1 CALM 0 0 1008.3 - 0.0 - - - - - - -
29/05:30am 27.8 CALM 0 2 1008.0 - 0.0 - - - - - - -
29/05:00am 28.0 CALM 0 0 1007.8 - 0.0 - - - - - - -
29/04:30am 28.0 CALM 0 0 1007.5 - 0.0 - - - - - - -
29/04:00am 28.2 CALM 0 0 1007.1 - 0.0 - - - - - - -
29/03:30am 28.4 CALM 0 0 1006.9 - 0.0 - - - - - - -
29/03:00am 28.5 CALM 0 0 1007.0 - 0.0 - - - - - - -
29/02:30am 28.9 CALM 0 0 1006.9 - 0.0 - - - - - - -
29/02:00am 28.8 CALM 0 3 1007.0 - 0.0 - - - - - - -
29/01:30am 29.0 E 3 4 1007.2 - 0.0 - - - - - - -
29/01:00am 29.1 ENE 3 4 1007.5 - 0.0 - - - - - - -
29/12:30am 29.2 E 4 4 1007.4 - 0.0 - - - - - - -
29/12:00am 29.2 E 3 4 1007.7 - 0.0 - - - - - - -
 
Date/Time
WST
Temp
°C
Wind Pressure Rain since
9am
mm
Weather Cloud Vis
km
Sea
Height
m
Swell
Dir  Spd
kts
Gust
kts
hPa Trend Height
m
Period
s
Dir
28/11:30pm 29.6 N 1 3 1007.7 - 0.0 - - - - - - -
28/11:00pm 30.0 NNW 4 4 1007.8 - 0.0 - - - - - - -
28/10:30pm 29.9 N 5 6 1008.0 - 0.0 - - - - - - -
28/10:00pm 30.2 NW 1 4 1008.1 - 0.0 - - - - - - -
28/09:30pm 30.6 CALM 0 0 1008.0 - 0.0 - - - - - - -
28/09:00pm 30.6 NNW 4 6 1008.2 - 0.0 - - - - - - -
28/08:30pm 31.2 CALM 0 0 1008.2 - 0.0 - - - - - - -
28/08:00pm 30.8 CALM 0 0 1008.1 - 0.0 - - - - - - -
28/07:30pm 31.1 NE 5 6 1007.7 - 0.0 - - - - - - -
28/07:00pm 31.5 NNE 4 4 1007.0 - 0.0 - - - - - - -
28/06:30pm 31.9 N 4 5 1006.6 - 0.0 - - - - - - -
28/06:00pm 32.4 NNE 4 4 1006.1 - 0.0 - - - - - - -
28/05:30pm 33.1 NE 3 4 1005.6 - 0.0 - - - - - - -
28/05:00pm 34.6 NNE 1 4 1005.1 - 0.0 - - - - - - -
28/04:30pm 35.5 CALM 0 0 1004.8 - 0.0 - - - - - - -
28/04:00pm 36.5 SSW 1 5 1004.9 - 0.0 - - - - - - -
28/03:30pm 36.1 SSW 1 4 1005.0 - 0.0 - - - - - - -
28/03:00pm 35.6 SE 4 6 1005.4 - 0.0 - - - - - - -
28/02:30pm 36.0 WSW 3 6 1005.7 - 0.0 - - - - - - -
28/02:00pm 35.8 SW 2 6 1006.1 - 0.0 - - - - - - -
28/01:30pm 35.3 WSW 4 7 1006.5 - 0.0 - - - - - - -
28/01:00pm 34.8 SSE 3 5 1007.1 - 0.0 - - - - - - -
28/12:30pm 34.9 SW 1 5 1007.7 - 0.0 - - - - - - -
28/12:00pm 34.5 WNW 4 7 1008.0 - 0.0 - - - - - - -
28/11:30am 34.1 WNW 6 10 1008.4 - 0.0 - - - - - - -
28/11:00am 33.4 W 6 9 1008.7 - 0.0 - - - - - - -
28/10:30am 32.8 SW 5 7 1009.1 - 0.0 - - - - - - -
28/10:00am 31.9 SSW 3 6 1009.7 - 0.0 - - - - - - -
28/09:30am 31.5 WNW 4 6 1009.9 - 0.0 - - - - - - -
28/09:00am 30.6 WSW 3 5 1010.3 - 0.0 - - - - - - -
28/08:30am 29.9 WSW 4 8 1010.3 - 0.0 - - - - - - -
28/08:00am 29.6 WSW 4 6 1010.1 - 0.0 - - - - - - -
28/07:30am 29.0 SW 4 5 1010.0 - 0.0 - - - - - - -
28/07:00am 28.9 S 4 5 1009.9 - 0.0 - - - - - - -
28/06:30am 28.1 SSW 3 4 1009.5 - 0.0 - - - - - - -
28/06:00am 27.7 CALM 0 0 1009.1 - 0.0 - - - - - - -
28/05:30am 27.7 WSW 1 3 1008.9 - 0.0 - - - - - - -
28/05:00am 27.6 WNW 4 5 1008.5 - 0.0 - - - - - - -
28/04:30am 27.6 SW 1 4 1008.0 - 0.0 - - - - - - -
28/04:00am 27.5 CALM 0 0 1007.6 - 0.0 - - - - - - -
28/03:30am 27.6 CALM 0 0 1007.3 - 0.0 - - - - - - -
28/03:00am 27.8 N 1 4 1007.3 - 0.0 - - - - - - -
28/02:30am 27.8 NNW 4 5 1007.6 - 0.0 - - - - - - -
28/02:00am 28.4 CALM 0 0 1007.7 - 0.0 - - - - - - -
28/01:30am 28.3 SW 4 4 1007.9 - 0.0 - - - - - - -
28/01:00am 28.6 CALM 0 0 1008.1 - 0.0 - - - - - - -
28/12:30am 28.6 W 1 4 1008.5 - 0.0 - - - - - - -
28/12:00am 28.5 CALM 0 0 1008.6 - 0.0 - - - - - - -
 
Date/Time
WST
Temp
°C
Wind Pressure Rain since
9am
mm
Weather Cloud Vis
km
Sea
Height
m
Swell
Dir  Spd
kts
Gust
kts
hPa Trend Height
m
Period
s
Dir
27/11:30pm 28.7 CALM 0 0 1009.0 - 0.0 - - - - - - -
27/11:00pm 28.8 ESE 5 7 1008.9 - 0.0 - - - - - - -
27/10:30pm 28.7 ESE 5 6 1009.1 - 0.0 - - - - - - -
27/10:00pm 28.7 E 5 6 1009.3 - 0.0 - - - - - - -
27/09:30pm 28.9 E 5 6 1009.4 - 0.0 - - - - - - -
27/09:00pm 29.2 E 4 6 1009.4 - 0.0 - - - - - - -
27/08:30pm 29.5 ESE 3 6 1009.1 - 0.0 - - - - - - -
27/08:00pm 29.8 CALM 0 0 1008.6 - 0.0 - - - - - - -
27/07:30pm 29.9 NW 2 4 1008.3 - 0.0 - - - - - - -
27/07:00pm 30.0 N 9 13 1007.6 - 0.0 - - - - - - -
27/06:30pm 30.0 N 9 12 1007.3 - 0.0 - - - - - - -
27/06:00pm 30.9 NNE 9 15 1007.3 - 0.0 - - - - - - -
27/05:30pm 31.9 NE 5 5 1006.5 - 0.0 - - - - - - -
27/05:00pm 32.7 NE 6 8 1006.1 - 0.0 - - - - - - -
27/04:30pm 33.9 ENE 4 6 1005.7 - 0.0 - - - - - - -
27/04:00pm 34.2 ESE 5 7 1005.6 - 0.0 - - - - - - -
27/03:30pm 34.1 SE 6 8 1005.5 - 0.0 - - - - - - -
27/03:00pm 35.0 NNE 4 5 1005.6 - 0.0 - - - - - - -
27/02:30pm 34.9 N 2 5 1005.8 - 0.0 - - - - - - -
27/02:00pm 34.2 SSE 2 5 1006.0 - 0.0 - - - - - - -
27/01:30pm 33.3 SSW 4 6 1006.5 - 0.0 - - - - - - -
27/01:00pm 33.5 SE 4 6 1006.7 - 0.0 - - - - - - -
27/12:30pm 33.0 WSW 6 8 1007.4 - 0.0 - - - - - - -
27/12:00pm 32.8 WSW 4 6 1008.0 - 0.0 - - - - - - -
27/11:30am 32.0 WSW 6 9 1008.6 - 0.0 - - - - - - -
27/11:00am 31.5 WSW 7 9 1009.0 - 0.0 - - - - - - -
27/10:30am 31.7 WSW 5 9 1009.4 - 0.0 - - - - - - -
27/10:00am 30.0 W 3 5 1009.9 - 0.0 - - - - - - -
27/09:30am 29.3 SW 2 5 1010.2 - 0.0 - - - - - - -
27/09:00am 29.1 SE 2 5 1010.6 - 49.6 - - - - - - -
27/08:30am 28.2 ESE 4 6 1010.9 - 49.6 - - - - - - -
27/08:00am 27.2 NE 3 4 1010.7 - 49.6 - - - - - - -
27/07:30am 26.4 ESE 3 5 1010.4 - 49.6 - - - - - - -
27/07:00am 25.5 S 4 5 1010.3 - 49.2 - - - - - - -
27/06:30am 25.2 SSE 4 5 1010.1 - 48.6 - - - - - - -
27/06:00am 25.0 ENE 1 4 1010.2 - 48.6 Recent precip. - - - - - -
27/05:30am 24.7 N 4 5 1009.8 - 48.6 - - - - - - -
27/05:00am 24.6 E 6 7 1009.4 - 48.4 - - - - - - -
27/04:30am 24.5 S 10 13 1009.5 - 40.8 - - - - - - -
27/04:00am 25.3 SSW 13 17 1009.5 - 10.8 - - - - - - -
27/03:30am 26.4 WSW 6 12 1009.3 - 2.6 - - - - - - -
27/03:00am 26.1 SE 6 8 1008.9 - 2.6 Recent precip. - - - - - -
27/02:30am 26.0 ESE 9 11 1008.8 - 2.6 - - - - - - -
27/02:00am 26.2 ESE 9 12 1008.7 - 1.0 - - - - - - -
27/01:30am 27.3 ESE 7 9 1008.7 - 0.0 - - - - - - -
27/01:00am 28.2 E 8 10 1009.2 - 0.0 - - - - - - -
27/12:30am 28.0 E 7 9 1009.1 - 0.0 - - - - - - -
27/12:00am 27.9 ESE 4 5 1009.4 - 0.0 - - - - - - -
 
Date/Time
WST
Temp
°C
Wind Pressure Rain since
9am
mm
Weather Cloud Vis
km
Sea
Height
m
Swell
Dir  Spd
kts
Gust
kts
hPa Trend Height
m
Period
s
Dir
26/11:30pm 28.1 E 5 7 1009.9 - 0.0 - - - - - - -
26/11:00pm 28.4 ENE 5 6 1010.2 - 0.0 - - - - - - -
26/10:30pm 28.4 E 5 6 1010.2 - 0.0 - - - - - - -
26/10:00pm 28.4 SE 7 9 1010.0 - 0.0 - - - - - - -
26/09:30pm 28.6 ESE 6 7 1009.8 - 0.0 - - - - - - -
26/09:00pm 28.6 ESE 10 13 1009.6 - 0.0 - - - - - - -
26/08:30pm 28.9 ESE 7 8 1009.2 - 0.0 - - - - - - -
26/08:00pm 29.6 E 5 7 1008.9 - 0.0 - - - - - - -
26/07:30pm 29.5 SE 8 10 1008.6 - 0.0 - - - - - - -
26/07:00pm 29.8 W 1 4 1008.0 - 0.0 - - - - - - -
26/06:30pm 29.3 NNE 6 7 1007.3 - 0.0 - - - - - - -
26/06:00pm 29.6 NE 11 17 1007.0 - 0.0 - - - - - - -
26/05:30pm 31.1 NNE 8 11 1006.3 - 0.0 - - - - - - -
26/05:00pm 32.0 N 6 8 1005.8 - 0.0 - - - - - - -
26/04:30pm 32.7 N 7 9 1005.4 - 0.0 - - - - - - -
26/04:00pm 33.0 NNE 6 7 1005.2 - 0.0 - - - - - - -
26/03:30pm 33.6 NE 5 7 1005.0 - 0.0 - - - - - - -
26/03:00pm 33.8 NE 8 10 1004.8 - 0.0 - - - - - - -
26/02:30pm 33.8 NE 7 9 1004.9 - 0.0 - - - - - - -
26/02:00pm 34.1 NE 7 10 1005.2 - 0.0 - - - - - - -
26/01:30pm 34.8 E 7 11 1005.3 - 0.0 - - - - - - -
26/01:00pm 35.2 NNE 4 8 1005.3 - 0.0 - - - - - - -
26/12:30pm 35.2 E 6 10 1005.8 - 0.0 - - - - - - -
26/12:00pm 34.8 SE 5 9 1006.5 - 0.0 - - - - - - -
26/11:30am 34.6 SSE 5 9 1007.0 - 0.0 - - - - - - -
26/11:00am 34.4 SSE 2 5 1007.8 - 0.0 - - - - - - -
26/10:30am 33.4 W 3 6 1008.2 - 0.0 - - - - - - -
26/10:00am 31.9 SSW 3 5 1008.8 - 0.0 - - - - - - -
26/09:30am 31.0 S 4 6 1009.3 - 0.0 - - - - - - -

Other Formats:

Comma delimited format used in spreadsheet applications
http://www.bom.gov.au/fwo/IDW60701/IDW60701.95214.axf

JavaScript Object Notation format (JSON) in row-major order
http://www.bom.gov.au/fwo/IDW60701/IDW60701.95214.json